createdAt,value
2023-02-03T00:00:14.175Z,5.21
2023-02-03T00:05:37.151Z,4.51
2023-02-03T00:10:43.308Z,4.00
2023-02-03T00:15:46.086Z,4.04
2023-02-03T00:20:48.920Z,6.95
2023-02-03T00:25:53.723Z,8.36
2023-02-03T00:30:56.530Z,6.53
2023-02-03T00:36:05.148Z,5.17
2023-02-03T00:41:07.984Z,4.36
2023-02-03T00:46:10.917Z,3.79
2023-02-03T00:51:13.769Z,4.47
2023-02-03T00:56:16.566Z,7.46
2023-02-03T01:01:19.435Z,9.01
2023-02-03T01:06:23.169Z,8.35
2023-02-03T01:11:27.947Z,6.32
2023-02-03T01:16:31.688Z,5.10
2023-02-03T01:21:36.277Z,4.27
2023-02-03T01:26:39.097Z,3.75
2023-02-03T01:31:42.681Z,5.86
2023-02-03T01:36:46.840Z,7.80
2023-02-03T01:41:49.811Z,6.18
2023-02-03T01:46:52.745Z,4.71
2023-02-03T01:51:56.392Z,3.85
2023-02-03T01:57:04.695Z,4.70
2023-02-03T02:02:07.987Z,7.43
2023-02-03T02:07:11.438Z,6.42
2023-02-03T02:12:14.279Z,4.85
2023-02-03T02:17:48.804Z,3.96
2023-02-03T02:23:29.796Z,3.30
2023-02-03T02:29:10.988Z,3.03
2023-02-03T02:34:35.455Z,5.94
2023-02-03T02:39:51.466Z,8.05
2023-02-03T02:45:04.774Z,7.76
2023-02-03T02:50:40.121Z,5.61
2023-02-03T02:55:44.700Z,4.30
2023-02-03T03:00:48.407Z,3.51
2023-02-03T03:06:02.953Z,2.99
2023-02-03T03:11:06.841Z,4.07
2023-02-03T03:16:12.547Z,7.03
2023-02-03T03:21:24.819Z,6.50
2023-02-03T03:26:43.426Z,4.76
2023-02-03T03:31:46.902Z,3.76
2023-02-03T03:37:17.592Z,3.13
2023-02-03T03:43:01.508Z,2.64
2023-02-03T03:48:12.403Z,2.26
2023-02-03T03:53:18.048Z,1.99
2023-02-03T03:58:26.697Z,1.77
2023-02-03T04:03:39.002Z,2.67
2023-02-03T04:08:41.958Z,6.10
2023-02-03T04:13:44.819Z,6.82
2023-02-03T04:18:47.628Z,4.98
2023-02-03T04:23:51.444Z,3.87
2023-02-03T04:28:54.509Z,3.22
2023-02-03T04:33:57.380Z,2.77
2023-02-03T04:39:00.309Z,2.45
2023-02-03T04:44:03.187Z,2.19
2023-02-03T04:49:06.055Z,2.03
2023-02-03T04:54:08.953Z,1.93
2023-02-03T04:59:11.815Z,1.85
2023-02-03T05:04:14.719Z,1.75
2023-02-03T05:09:17.612Z,1.77
2023-02-03T05:14:21.151Z,4.35
2023-02-03T05:19:23.944Z,6.04
2023-02-03T05:24:26.736Z,4.47
2023-02-03T05:29:43.772Z,3.44
2023-02-03T05:34:46.864Z,2.85
2023-02-03T05:39:49.808Z,2.45
2023-02-03T05:44:52.610Z,2.18
2023-02-03T05:49:55.409Z,1.99
2023-02-03T05:54:58.221Z,1.85
2023-02-03T06:00:01.055Z,1.73
2023-02-03T06:05:04.674Z,1.63
2023-02-03T06:10:08.215Z,1.55
2023-02-03T06:15:11.276Z,1.52
2023-02-03T06:20:18.230Z,1.53
2023-02-03T06:25:21.086Z,1.54
2023-02-03T06:30:23.986Z,1.56
2023-02-03T06:35:26.821Z,1.59
2023-02-03T06:40:30.289Z,1.61
2023-02-03T06:45:34.592Z,1.64
2023-02-03T06:50:37.496Z,1.69
2023-02-03T06:55:40.280Z,1.73
2023-02-03T07:00:43.813Z,1.76
2023-02-03T07:05:46.670Z,1.76
2023-02-03T07:10:57.133Z,1.73
2023-02-03T07:16:00.025Z,1.73
2023-02-03T07:21:07.602Z,1.72
2023-02-03T07:26:10.918Z,1.72
2023-02-03T07:31:13.798Z,2.84
2023-02-03T07:36:16.672Z,6.34
2023-02-03T07:41:19.505Z,6.79
2023-02-03T07:46:22.351Z,5.24
2023-02-03T07:51:25.221Z,4.32
2023-02-03T07:56:28.038Z,3.73
2023-02-03T08:01:31.540Z,3.28
2023-02-03T08:06:34.758Z,2.95
2023-02-03T08:11:37.602Z,2.74
2023-02-03T08:16:40.429Z,2.60
2023-02-03T08:21:43.249Z,2.43
2023-02-03T08:26:46.265Z,2.31
2023-02-03T08:31:49.241Z,2.23
2023-02-03T08:36:52.179Z,2.17
2023-02-03T08:41:55.087Z,2.14
2023-02-03T08:46:58.114Z,2.14
2023-02-03T08:52:00.954Z,2.18
2023-02-03T08:57:04.248Z,2.22
2023-02-03T09:02:14.229Z,2.26
2023-02-03T09:07:17.147Z,2.28
2023-02-03T09:12:20.063Z,2.33
2023-02-03T09:17:22.925Z,2.35
2023-02-03T09:22:25.742Z,2.33
2023-02-03T09:27:28.733Z,2.32
2023-02-03T09:32:31.587Z,2.30
2023-02-03T09:37:34.411Z,3.34
2023-02-03T09:43:36.287Z,6.75
2023-02-03T09:48:46.977Z,6.14
2023-02-03T09:54:01.275Z,4.73
2023-02-03T09:59:13.182Z,3.87
2023-02-03T10:04:40.121Z,3.32
2023-02-03T10:10:17.824Z,2.92
2023-02-03T10:16:00.797Z,2.70
2023-02-03T10:21:14.520Z,2.57
2023-02-03T10:26:25.508Z,2.48
2023-02-03T10:31:32.285Z,2.95
2023-02-03T10:37:06.967Z,6.11
2023-02-03T10:42:12.224Z,5.82
2023-02-03T10:47:37.904Z,4.46
2023-02-03T10:52:40.838Z,3.70
2023-02-03T10:57:43.706Z,3.28
2023-02-03T11:02:55.392Z,2.94
2023-02-03T11:07:58.407Z,3.38
2023-02-03T11:13:16.423Z,6.41
2023-02-03T11:18:41.410Z,5.80
2023-02-03T11:24:00.319Z,4.42
2023-02-03T11:29:06.464Z,3.73
2023-02-03T11:34:24.475Z,3.31
2023-02-03T11:39:37.415Z,2.99
2023-02-03T11:44:40.326Z,4.75
2023-02-03T11:50:35.532Z,6.54
2023-02-03T11:55:57.174Z,4.85
2023-02-03T12:01:43.641Z,3.98
2023-02-03T12:07:15.734Z,3.44
2023-02-03T12:12:30.044Z,3.05
2023-02-03T12:18:07.453Z,2.82
2023-02-03T12:23:40.665Z,4.04
2023-02-03T12:29:07.060Z,6.08
2023-02-03T12:34:37.516Z,4.69
2023-02-03T12:39:52.123Z,3.78
2023-02-03T12:45:04.015Z,3.32
2023-02-03T12:50:17.890Z,3.87
2023-02-03T12:55:34.745Z,6.26
2023-02-03T13:00:46.373Z,5.05
2023-02-03T13:06:31.592Z,4.09
2023-02-03T13:11:44.413Z,3.45
2023-02-03T13:16:53.988Z,4.00
2023-02-03T13:21:56.900Z,5.62
2023-02-03T13:27:36.639Z,4.30
2023-02-03T13:33:06.100Z,4.32
2023-02-03T13:38:35.687Z,6.83
2023-02-03T13:43:45.595Z,5.31
2023-02-03T13:48:49.282Z,4.09
2023-02-03T13:53:59.955Z,5.71
2023-02-03T13:59:24.163Z,5.63
2023-02-03T14:04:26.954Z,4.39
2023-02-03T14:09:35.797Z,6.44
2023-02-03T14:14:38.639Z,6.22
2023-02-03T14:19:50.431Z,4.78
2023-02-03T14:24:56.657Z,6.38
2023-02-03T14:30:13.617Z,5.42
2023-02-03T14:35:23.819Z,5.39
2023-02-03T14:40:51.055Z,6.08
2023-02-03T14:46:08.595Z,5.19
2023-02-03T14:51:33.513Z,6.28
2023-02-03T14:57:19.676Z,4.86
2023-02-03T15:02:31.062Z,6.26
2023-02-03T15:07:34.902Z,4.92
2023-02-03T15:12:38.037Z,6.27
2023-02-03T15:17:40.846Z,5.54
2023-02-03T15:22:43.659Z,5.46
2023-02-03T15:27:46.916Z,6.56
2023-02-03T15:33:21.518Z,4.84
2023-02-03T15:38:43.839Z,6.18
2023-02-03T15:43:48.174Z,5.19
2023-02-03T15:49:15.232Z,5.65
2023-02-03T15:54:31.980Z,6.31
2023-02-03T15:59:41.196Z,4.81
2023-02-03T16:04:46.026Z,6.22
2023-02-03T16:09:54.201Z,5.08
2023-02-03T16:15:00.217Z,5.03
2023-02-03T16:20:12.198Z,6.23
2023-02-03T16:25:27.804Z,4.86
2023-02-03T16:30:49.383Z,6.29
2023-02-03T16:36:11.229Z,4.93
2023-02-03T16:41:36.313Z,5.79
2023-02-03T16:46:57.631Z,6.33
2023-02-03T16:52:01.649Z,4.45
2023-02-03T16:57:04.592Z,5.62
2023-02-03T17:02:07.848Z,6.55
2023-02-03T17:07:10.712Z,4.87
2023-02-03T17:12:13.532Z,6.32
2023-02-03T17:17:16.317Z,6.05
2023-02-03T17:22:19.371Z,4.69
2023-02-03T17:27:22.190Z,6.68
2023-02-03T17:32:25.055Z,7.57
2023-02-03T17:37:28.020Z,5.62
2023-02-03T17:58:18.137Z,5.09
2023-02-03T18:03:20.919Z,7.16
2023-02-03T18:08:25.286Z,7.09
2023-02-03T18:13:28.997Z,5.30
2023-02-03T18:18:34.738Z,4.40
2023-02-03T18:23:38.303Z,6.38
2023-02-03T18:28:41.649Z,8.11
2023-02-03T18:33:47.679Z,6.76
2023-02-03T18:38:50.520Z,5.22
2023-02-03T18:43:53.437Z,4.27
2023-02-03T18:48:56.801Z,3.64
2023-02-03T18:53:59.895Z,4.64
2023-02-03T18:59:10.189Z,7.56
2023-02-03T19:04:15.969Z,8.11
2023-02-03T19:09:20.664Z,6.24
2023-02-03T19:14:24.720Z,5.14
2023-02-03T19:19:27.644Z,4.44
2023-02-03T19:24:30.504Z,3.92
2023-02-03T19:29:34.181Z,4.54
2023-02-03T19:34:36.989Z,7.61
2023-02-03T19:39:39.971Z,9.11
2023-02-03T19:44:42.845Z,7.62
2023-02-03T19:49:45.673Z,6.06
2023-02-03T19:54:48.501Z,5.16
2023-02-03T19:59:51.374Z,4.50
2023-02-03T20:04:54.176Z,3.99
2023-02-03T20:09:56.996Z,4.93
2023-02-03T20:15:02.664Z,7.94
2023-02-03T20:20:05.935Z,9.53
2023-02-03T20:25:09.433Z,8.66
2023-02-03T20:30:12.996Z,6.70
2023-02-03T20:35:15.924Z,5.53
2023-02-03T20:40:23.032Z,4.73
2023-02-03T20:45:25.876Z,5.15
2023-02-03T20:50:40.520Z,8.00
2023-02-03T20:55:44.950Z,9.54
2023-02-03T21:00:48.397Z,8.13
2023-02-03T21:05:51.258Z,6.30
2023-02-03T21:10:54.794Z,5.22
2023-02-03T21:16:02.645Z,4.58
2023-02-03T21:21:24.888Z,6.74
2023-02-03T21:26:31.067Z,9.15
2023-02-03T21:31:35.202Z,9.08
2023-02-03T21:36:38.409Z,6.99
2023-02-03T21:41:41.543Z,5.71
2023-02-03T21:46:44.337Z,4.84
2023-02-03T21:51:47.184Z,5.26
2023-02-03T21:56:54.075Z,8.10
2023-02-03T22:02:00.705Z,9.65
2023-02-03T22:07:15.075Z,8.63
2023-02-03T22:12:17.908Z,6.65
2023-02-03T22:17:20.782Z,5.56
2023-02-03T22:22:23.648Z,4.81
2023-02-03T22:27:26.525Z,6.29
2023-02-03T22:32:29.388Z,8.75
2023-02-03T22:37:33.307Z,9.95
2023-02-03T22:42:36.139Z,9.33
2023-02-03T22:47:39.004Z,7.27
2023-02-03T22:52:42.086Z,6.06
2023-02-03T22:57:44.953Z,5.25
2023-02-03T23:02:48.197Z,4.58
2023-02-03T23:07:51.433Z,4.01
2023-02-03T23:12:54.272Z,4.16
2023-02-03T23:17:57.159Z,7.03
2023-02-03T23:23:00.779Z,8.79
2023-02-03T23:28:03.788Z,7.30
2023-02-03T23:33:06.632Z,5.57
2023-02-03T23:38:09.449Z,4.50
2023-02-03T23:43:12.258Z,5.01
2023-02-03T23:48:17.469Z,7.66
2023-02-03T23:53:20.274Z,7.53
2023-02-03T23:58:23.216Z,5.46
